Time;durP1;ratioP1;P1;durP2;ratioP2;P2;SDS_P1;SDS_P2;PMS_P1;PMS_P2;Temp;Humidity;BMP_temperature;BMP_pressure;BME280_temperature;BME280_humidity;BME280_pressure;Samples;Min_cycle;Max_cycle;Signal;HPM_P1;HPM_P2
2022/11/05 00:09:32;;;;;;;37.72;7.07;;;;;;;8.03;100.00;100907.34;4951472;28;20027;-75
2022/11/05 00:17:35;;;;;;;21.30;6.72;;;;;;;8.09;100.00;100901.41;4950951;29;20059;-76
2022/11/05 00:20:01;;;;;;;35.03;6.68;;;;;;;8.10;100.00;100908.50;4965918;28;20067;-75
2022/11/05 00:25:15;;;;;;;24.25;6.30;;;;;;;8.40;100.00;100916.44;4970726;28;20050;-75
2022/11/05 00:27:45;;;;;;;32.00;7.88;;;;;;;8.23;100.00;100925.25;4997289;28;20114;-75
2022/11/05 00:30:15;;;;;;;25.45;6.40;;;;;;;7.98;100.00;100920.41;4953191;28;20026;-77
2022/11/05 00:32:41;;;;;;;33.65;6.60;;;;;;;8.01;100.00;100926.34;4971014;28;20110;-74
2022/11/05 00:35:07;;;;;;;35.75;6.13;;;;;;;8.29;100.00;100919.28;4969007;28;20118;-75
2022/11/05 00:37:32;;;;;;;22.08;5.53;;;;;;;8.40;100.00;100926.38;4970015;28;20023;-75
2022/11/05 00:39:57;;;;;;;30.45;6.65;;;;;;;8.17;100.00;100925.81;4953129;28;20089;-75
2022/11/05 00:45:07;;;;;;;24.77;6.50;;;;;;;8.07;100.00;100936.56;4970778;28;20054;-75
2022/11/05 00:50:19;;;;;;;27.50;6.95;;;;;;;8.10;100.00;100946.25;4970768;28;20031;-75
2022/11/05 00:52:55;;;;;;;34.95;7.15;;;;;;;8.15;100.00;100943.97;4970103;28;20497;-75
2022/11/05 00:55:27;;;;;;;36.22;6.15;;;;;;;8.09;100.00;100949.94;4972630;28;20029;-75
2022/11/05 00:57:53;;;;;;;40.10;6.07;;;;;;;8.04;100.00;100952.19;4972347;28;20073;-75
2022/11/05 01:00:19;;;;;;;25.88;5.65;;;;;;;8.36;100.00;100947.41;4973551;28;20027;-75
2022/11/05 01:02:44;;;;;;;27.00;5.72;;;;;;;8.31;100.00;100949.66;4956678;28;20027;-75
2022/11/05 01:05:10;;;;;;;31.35;5.65;;;;;;;8.27;100.00;100950.91;4956450;28;20081;-75
2022/11/05 01:07:35;;;;;;;34.60;6.10;;;;;;;8.25;100.00;100961.00;4956019;28;20069;-75
2022/11/05 01:10:00;;;;;;;24.00;5.55;;;;;;;8.18;100.00;100959.88;4973432;28;20054;-77
2022/11/05 01:12:26;;;;;;;28.58;5.47;;;;;;;8.33;100.00;100971.09;4973726;28;20037;-75
2022/11/05 01:14:51;;;;;;;29.88;6.55;;;;;;;8.31;100.00;100965.84;4956606;28;20064;-75
2022/11/05 01:17:17;;;;;;;24.58;5.53;;;;;;;8.51;100.00;100965.88;4973219;28;20030;-75
2022/11/05 01:19:42;;;;;;;22.50;5.15;;;;;;;8.57;100.00;100965.31;4971898;28;20023;-76
2022/11/05 01:22:07;;;;;;;34.85;5.57;;;;;;;8.37;100.00;100965.31;4972339;28;20033;-75
2022/11/05 01:24:33;;;;;;;31.83;5.10;;;;;;;8.50;100.00;100964.16;4972657;28;20041;-75
2022/11/05 01:26:58;;;;;;;28.83;6.03;;;;;;;8.34;100.00;100973.63;4988715;28;20031;-75
2022/11/05 01:29:24;;;;;;;28.90;5.32;;;;;;;8.46;100.00;100969.00;4972892;28;20027;-75
2022/11/05 01:31:49;;;;;;;32.40;5.25;;;;;;;8.45;100.00;100971.84;4956502;28;20019;-75
2022/11/05 01:34:14;;;;;;;24.13;5.82;;;;;;;8.47;100.00;100964.44;4973275;28;20109;-75
2022/11/05 01:36:40;;;;;;;28.88;5.20;;;;;;;8.39;100.00;100963.31;4972175;28;20503;-76
2022/11/05 01:39:05;;;;;;;22.35;4.88;;;;;;;8.34;100.00;100954.75;4973138;28;20384;-76
2022/11/05 01:41:30;;;;;;;20.23;5.38;;;;;;;8.38;100.00;100958.06;4956169;28;20037;-75
2022/11/05 01:43:58;;;;;;;19.55;4.43;;;;;;;8.35;100.00;100961.91;4956496;28;20034;-75
2022/11/05 01:46:45;;;;;;;36.53;6.03;;;;;;;8.20;100.00;100963.25;4955792;28;20037;-75
2022/11/05 01:49:26;;;;;;;22.95;4.60;;;;;;;8.22;100.00;100966.69;4955894;28;20023;-76
2022/11/05 01:51:52;;;;;;;26.07;5.47;;;;;;;8.22;100.00;100972.09;4972014;28;20026;-75
2022/11/05 01:54:21;;;;;;;37.60;6.30;;;;;;;8.15;100.00;100969.09;4971748;28;20029;-75
2022/11/05 01:56:51;;;;;;;23.70;5.70;;;;;;;7.95;100.00;100974.59;4972832;28;20045;-73
2022/11/05 01:59:33;;;;;;;25.77;5.28;;;;;;;7.94;100.00;100973.72;4971538;28;20554;-72
2022/11/05 02:02:00;;;;;;;;;;;;;;;7.87;100.00;100970.72;4971976;28;20026;-73
2022/11/05 02:04:37;;;;;;;26.83;6.20;;;;;;;7.89;100.00;100971.47;4971555;28;19914;-72
2022/11/05 02:07:05;;;;;;;29.25;6.10;;;;;;;7.86;100.00;100969.03;4970662;28;20027;-73
2022/11/05 02:09:38;;;;;;;24.20;6.15;;;;;;;7.81;100.00;100973.97;4971269;28;20033;-73
2022/11/05 02:12:04;;;;;;;26.73;5.85;;;;;;;7.74;100.00;100972.84;4972799;28;20034;-73
2022/11/05 02:14:29;;;;;;;26.42;5.88;;;;;;;7.55;100.00;100972.75;4972377;28;20023;-72
2022/11/05 02:17:03;;;;;;;32.75;7.18;;;;;;;7.54;100.00;100981.84;4971215;28;20026;-73
2022/11/05 02:19:59;;;;;;;31.30;6.03;;;;;;;7.64;100.00;100977.34;4955472;28;20031;-73
2022/11/05 02:23:03;;;;;;;27.05;6.40;;;;;;;7.65;100.00;100979.06;4978899;28;20026;-73
2022/11/05 02:25:53;;;;;;;24.92;5.85;;;;;;;7.50;100.00;100980.44;4972333;28;20023;-73
2022/11/05 02:28:41;;;;;;;32.97;6.03;;;;;;;7.61;100.00;100972.22;4996047;28;20031;-73
2022/11/05 02:31:29;;;;;;;25.02;5.75;;;;;;;7.56;100.00;100979.84;4970911;28;20030;-72
2022/11/05 02:34:36;;;;;;;20.23;5.38;;;;;;;7.65;100.00;100973.66;4972471;28;20027;-73
2022/11/05 02:37:27;;;;;;;34.90;6.03;;;;;;;7.51;100.00;100977.59;4953799;28;20031;-73
2022/11/05 02:40:07;;;;;;;19.40;5.30;;;;;;;7.47;100.00;100980.69;4972580;28;20023;-73
2022/11/05 02:42:57;;;;;;;21.05;6.80;;;;;;;7.54;100.00;100971.06;4954752;28;20026;-73
2022/11/05 02:46:00;;;;;;;29.67;5.47;;;;;;;7.58;100.00;100975.22;4954936;28;20026;-73
2022/11/05 02:48:41;;;;;;;24.30;6.05;;;;;;;7.53;100.00;100974.75;4953605;28;20039;-73
2022/11/05 02:51:31;;;;;;;31.35;6.10;;;;;;;7.39;100.00;100977.81;4970775;28;20045;-73
2022/11/05 02:54:18;;;;;;;28.40;6.43;;;;;;;7.22;100.00;100980.13;4971209;28;20038;-73
2022/11/05 02:56:47;;;;;;;20.02;6.38;;;;;;;7.22;100.00;100971.22;4971159;28;20035;-73
2022/11/05 02:59:12;;;;;;;31.80;6.63;;;;;;;7.22;100.00;100976.59;4970144;28;20097;-74
2022/11/05 03:01:40;;;;;;;22.85;6.47;;;;;;;7.15;100.00;100976.28;4954686;28;20387;-72
2022/11/05 03:04:10;;;;;;;28.83;6.15;;;;;;;7.05;100.00;100975.38;4954308;28;20055;-72
2022/11/05 03:07:05;;;;;;;32.42;5.60;;;;;;;7.12;100.00;100975.72;4969792;28;20511;-73
2022/11/05 03:10:00;;;;;;;24.67;6.85;;;;;;;7.09;100.00;100976.81;4986219;28;20043;-73
2022/11/05 03:12:37;;;;;;;29.48;5.68;;;;;;;7.12;100.00;100981.94;4970742;28;20041;-73
2022/11/05 03:15:38;;;;;;;31.92;6.22;;;;;;;7.05;100.00;100980.78;4971322;28;20055;-73
2022/11/05 03:48:22;;;;;;;27.95;6.25;;;;;;;6.94;100.00;101005.06;4905642;23;20526;-71
2022/11/05 03:50:55;;;;;;;22.05;6.68;;;;;;;7.10;100.00;101002.75;4989596;28;20026;-70
2022/11/05 03:53:26;;;;;;;28.48;7.10;;;;;;;7.23;100.00;101019.53;4968768;28;20065;-73
2022/11/05 03:56:07;;;;;;;40.95;6.82;;;;;;;7.07;100.00;101025.41;4969083;28;20037;-73
2022/11/05 03:58:34;;;;;;;36.70;6.95;;;;;;;7.03;100.00;101020.41;4970177;28;20129;-70
2022/11/05 04:01:01;;;;;;;24.73;6.95;;;;;;;7.23;100.00;101022.22;4952515;28;20033;-72
2022/11/05 04:03:27;;;;;;;34.45;5.90;;;;;;;7.33;100.00;101028.53;4952530;28;20114;-71
2022/11/05 04:14:05;;;;;;;29.00;6.18;;;;;;;7.07;100.00;101011.09;4969899;28;20122;-71
2022/11/05 04:24:06;;;;;;;31.63;7.45;;;;;;;7.11;100.00;101017.94;4969859;28;20050;-71
2022/11/05 04:24:44;;;;;;;33.97;6.45;;;;;;;7.03;100.00;101020.41;4969685;28;20058;-71
2022/11/05 04:27:10;;;;;;;25.15;5.65;;;;;;;7.01;100.00;101022.41;4957169;28;20018;-72
2022/11/05 04:32:19;;;;;;;31.92;6.40;;;;;;;6.84;100.00;101036.41;4973857;28;20031;-71
2022/11/05 04:34:44;;;;;;;30.85;6.68;;;;;;;6.83;100.00;101040.09;4956626;28;20134;-72
2022/11/05 04:37:10;;;;;;;21.58;7.13;;;;;;;6.84;100.00;101036.41;4973236;28;20480;-72
2022/11/05 04:39:35;;;;;;;35.50;6.63;;;;;;;6.84;100.00;101052.56;4973529;28;20033;-72
2022/11/05 04:42:00;;;;;;;20.45;7.03;;;;;;;6.94;100.00;101042.75;4955928;28;20073;-72
2022/11/05 04:44:26;;;;;;;30.92;7.38;;;;;;;6.90;100.00;101046.66;4956681;28;20053;-72
2022/11/05 04:46:51;;;;;;;27.85;7.05;;;;;;;6.88;100.00;101043.28;4956279;28;20058;-72
2022/11/05 04:49:17;;;;;;;26.23;7.13;;;;;;;6.65;100.00;101047.88;4973186;28;20488;-72
2022/11/05 04:51:42;;;;;;;33.85;6.75;;;;;;;6.61;100.00;101051.84;4973387;28;20035;-71
2022/11/05 04:54:07;;;;;;;36.72;7.00;;;;;;;6.69;100.00;101050.19;4971658;28;20026;-71
2022/11/05 04:56:33;;;;;;;29.10;7.10;;;;;;;6.74;100.00;101057.88;4973335;28;20062;-72
2022/11/05 04:58:58;;;;;;;28.40;7.10;;;;;;;6.85;100.00;101054.31;4972802;28;20023;-71
2022/11/05 05:01:24;;;;;;;31.13;6.95;;;;;;;6.84;100.00;101057.94;4973437;28;20030;-71
2022/11/05 05:03:51;;;;;;;34.47;7.68;;;;;;;6.70;100.00;101056.44;4971612;28;20030;-71
2022/11/05 05:06:17;;;;;;;19.63;6.18;;;;;;;6.77;100.00;101058.47;4971288;28;20033;-72
2022/11/05 05:08:43;;;;;;;27.77;6.03;;;;;;;6.76;100.00;101062.16;4975019;28;20077;-71
2022/11/05 05:11:14;;;;;;;24.08;6.43;;;;;;;6.89;100.00;101056.59;4975271;28;20069;-71
2022/11/05 05:13:39;;;;;;;16.90;5.90;;;;;;;6.89;100.00;101055.72;4992719;28;20026;-73
2022/11/05 05:16:16;;;;;;;27.77;6.13;;;;;;;7.01;100.00;101057.38;4992916;28;20034;-73
2022/11/05 05:18:41;;;;;;;23.23;6.50;;;;;;;7.01;100.00;101060.06;4974504;28;20045;-73
2022/11/05 05:23:52;;;;;;;26.83;6.65;;;;;;;6.94;100.00;101053.50;4955663;29;20023;-73
2022/11/05 05:26:17;;;;;;;23.55;6.25;;;;;;;6.97;100.00;101055.94;4954292;29;20122;-73
2022/11/05 05:28:42;;;;;;;17.17;6.05;;;;;;;6.89;100.00;101061.13;4967698;28;20046;-71
2022/11/05 05:31:08;;;;;;;27.88;7.05;;;;;;;6.73;100.00;101051.66;4957062;28;20121;-73
2022/11/05 05:33:33;;;;;;;18.38;5.22;;;;;;;6.85;100.00;101070.47;4954955;28;20038;-73
2022/11/05 05:36:00;;;;;;;26.90;5.45;;;;;;;6.89;100.00;101066.50;4954938;28;20034;-71
2022/11/05 05:38:27;;;;;;;22.05;6.18;;;;;;;6.77;100.00;101069.22;4972086;28;20030;-72
2022/11/05 05:40:58;;;;;;;19.80;6.00;;;;;;;6.73;100.00;101067.81;4953731;28;20027;-72
2022/11/05 05:43:23;;;;;;;21.17;5.82;;;;;;;6.68;100.00;101080.78;4971384;28;20035;-72
2022/11/05 05:45:49;;;;;;;31.92;6.13;;;;;;;6.88;100.00;101075.56;4954744;28;20041;-72
2022/11/05 05:48:14;;;;;;;19.73;6.65;;;;;;;6.88;100.00;101071.03;4954616;28;20042;-71
2022/11/05 05:50:40;;;;;;;22.02;6.60;;;;;;;6.77;100.00;101088.06;4972095;28;20121;-71
2022/11/05 05:53:06;;;;;;;22.88;6.80;;;;;;;6.68;100.00;101080.78;4954504;28;20031;-71
2022/11/05 05:55:31;;;;;;;19.42;6.55;;;;;;;6.66;100.00;101082.75;4952589;28;20497;-71
2022/11/05 05:57:57;;;;;;;12.80;6.20;;;;;;;6.70;100.00;101088.72;4954503;28;20027;-71
2022/11/05 06:00:22;;;;;;;27.92;6.00;;;;;;;6.80;100.00;101095.91;4954541;28;20045;-73
2022/11/05 06:02:47;;;;;;;15.73;5.47;;;;;;;6.53;100.00;101082.06;4971583;28;20097;-72
2022/11/05 06:05:13;;;;;;;19.13;5.55;;;;;;;6.67;100.00;101089.84;4971426;28;20027;-72
2022/11/05 06:07:38;;;;;;;18.38;6.20;;;;;;;6.70;100.00;101094.09;4971641;28;20097;-72
2022/11/05 06:10:04;;;;;;;21.95;6.32;;;;;;;6.72;100.00;101103.78;4970668;28;20023;-73
2022/11/05 06:12:30;;;;;;;29.13;6.82;;;;;;;6.75;100.00;101103.50;4954295;28;20042;-73
2022/11/05 06:14:55;;;;;;;21.42;6.18;;;;;;;6.72;100.00;101109.16;4970316;28;20097;-72
2022/11/05 06:17:20;;;;;;;22.67;5.50;;;;;;;6.72;100.00;101109.16;4970154;28;20062;-72
2022/11/05 06:19:46;;;;;;;20.58;6.55;;;;;;;6.78;100.00;101108.66;4970376;28;20113;-72
2022/11/05 06:22:12;;;;;;;22.40;5.97;;;;;;;6.84;100.00;101117.16;4974862;28;20023;-72
2022/11/05 06:24:37;;;;;;;22.70;5.50;;;;;;;6.76;100.00;101115.97;4954426;28;20026;-72
2022/11/05 06:27:03;;;;;;;33.75;7.15;;;;;;;6.78;100.00;101123.91;4970248;28;20026;-72
2022/11/05 06:29:29;;;;;;;19.35;5.80;;;;;;;6.78;100.00;101119.41;4971445;28;20062;-72
2022/11/05 06:31:54;;;;;;;21.33;5.28;;;;;;;6.80;100.00;101120.13;4971261;28;20065;-72
2022/11/05 06:34:19;;;;;;;28.27;7.03;;;;;;;6.69;100.00;101120.16;4954473;28;20112;-72
2022/11/05 06:36:44;;;;;;;36.35;6.65;;;;;;;6.43;100.00;101119.59;4953728;28;20031;-73
2022/11/05 06:39:11;;;;;;;26.25;6.47;;;;;;;6.54;100.00;101121.44;4954288;28;20234;-72
2022/11/05 06:41:36;;;;;;;22.33;7.95;;;;;;;6.52;100.00;101120.72;4954145;28;20027;-72
2022/11/05 06:44:02;;;;;;;16.08;6.25;;;;;;;6.49;100.00;101134.41;4953732;28;20022;-73
2022/11/05 06:46:27;;;;;;;25.17;6.80;;;;;;;6.53;100.00;101135.88;4970923;28;20042;-73
2022/11/05 06:48:53;;;;;;;16.85;6.35;;;;;;;6.55;100.00;101139.28;4953550;28;20041;-71
2022/11/05 06:51:18;;;;;;;28.80;7.05;;;;;;;6.59;100.00;101142.59;4971227;28;20038;-71
2022/11/05 06:53:44;;;;;;;32.55;6.28;;;;;;;6.33;100.00;101144.72;4953397;28;20081;-72
2022/11/05 06:56:09;;;;;;;28.67;7.30;;;;;;;6.35;100.00;101148.13;4953812;28;20143;-72
2022/11/05 06:58:35;;;;;;;25.30;5.97;;;;;;;6.43;100.00;101137.59;4953533;28;20031;-69
2022/11/05 07:01:02;;;;;;;29.88;6.15;;;;;;;6.51;100.00;101135.13;4953872;28;20111;-73
2022/11/05 07:03:28;;;;;;;27.08;6.35;;;;;;;6.68;100.00;101139.97;4954210;28;20113;-71
2022/11/05 07:05:55;;;;;;;18.48;6.32;;;;;;;6.58;100.00;101130.09;4971619;28;20216;-73
2022/11/05 07:08:21;;;;;;;39.63;8.05;;;;;;;6.59;100.00;101139.91;4953297;28;20057;-71
2022/11/05 07:10:47;;;;;;;25.73;6.45;;;;;;;6.83;100.00;101150.44;4953790;28;20111;-71
2022/11/05 07:13:12;;;;;;;18.80;6.28;;;;;;;6.67;100.00;101159.78;4968547;28;20114;-71
2022/11/05 07:15:37;;;;;;;29.58;7.55;;;;;;;6.65;100.00;101160.88;4953763;28;20329;-71
2022/11/05 07:18:06;;;;;;;25.48;6.63;;;;;;;6.80;100.00;101159.66;4971038;28;20030;-71
2022/11/05 07:20:31;;;;;;;21.02;6.00;;;;;;;6.75;100.00;101161.84;4941258;29;20356;-71
2022/11/05 07:23:06;;;;;;;24.70;6.50;;;;;;;6.95;100.00;101168.28;4951284;29;20027;-71
2022/11/05 07:25:33;;;;;;;32.20;6.82;;;;;;;7.06;100.00;101171.78;4950611;29;20123;-72
2022/11/05 07:27:58;;;;;;;28.48;6.10;;;;;;;7.10;100.00;101166.97;4959552;28;20101;-73
2022/11/05 07:30:24;;;;;;;26.15;6.63;;;;;;;7.29;100.00;101161.75;4953073;28;20031;-72
2022/11/05 07:32:51;;;;;;;24.80;6.28;;;;;;;7.27;100.00;101163.72;4965261;28;20129;-72
2022/11/05 07:35:16;;;;;;;21.58;5.70;;;;;;;7.50;100.00;101174.41;4969943;28;20173;-73
2022/11/05 07:37:47;;;;;;;25.75;6.28;;;;;;;7.47;100.00;101169.25;4954623;28;20031;-73
2022/11/05 07:40:13;;;;;;;20.05;4.88;;;;;;;7.50;100.00;101179.81;4971802;28;20042;-73
2022/11/05 07:42:43;;;;;;;17.10;5.40;;;;;;;7.36;100.00;101189.03;4971695;28;20030;-73
2022/11/05 07:45:09;;;;;;;26.45;6.07;;;;;;;7.35;100.00;101185.47;4954836;28;20041;-73
2022/11/05 07:47:37;;;;;;;18.75;5.03;;;;;;;7.57;100.00;101191.75;4970463;28;20030;-74
2022/11/05 07:50:03;;;;;;;23.92;5.15;;;;;;;7.61;100.00;101187.78;4954650;28;20031;-74
2022/11/05 07:52:31;;;;;;;16.27;5.03;;;;;;;7.74;100.00;101193.84;4954228;28;20165;-73
2022/11/05 07:54:56;;;;;;;23.85;5.63;;;;;;;7.85;100.00;101196.47;4953638;28;20027;-73
2022/11/05 07:57:21;;;;;;;26.95;6.47;;;;;;;7.87;100.00;101189.09;4954717;28;20475;-75
2022/11/05 07:59:47;;;;;;;23.15;5.35;;;;;;;8.12;100.00;101185.13;4971980;28;20030;-74
2022/11/05 08:02:12;;;;;;;21.58;5.50;;;;;;;8.19;99.57;101193.53;4954923;28;20026;-74
2022/11/05 08:04:39;;;;;;;25.92;5.00;;;;;;;7.95;100.00;101190.28;4972060;28;20427;-74
2022/11/05 08:07:04;;;;;;;17.35;4.85;;;;;;;8.00;100.00;101188.88;4948824;28;20023;-74
2022/11/05 08:09:30;;;;;;;20.30;4.75;;;;;;;7.91;99.06;101194.25;4950263;28;20038;-74
2022/11/05 08:11:56;;;;;;;15.07;3.83;;;;;;;8.03;99.45;101187.78;4950724;28;20073;-73
2022/11/05 08:14:21;;;;;;;16.55;4.38;;;;;;;8.12;99.52;101177.03;4949641;28;20038;-73
2022/11/05 08:16:47;;;;;;;12.63;4.28;;;;;;;8.03;98.84;101183.25;4949019;28;20043;-74
2022/11/05 08:19:12;;;;;;;16.10;4.57;;;;;;;8.31;98.56;101192.44;4949226;28;20469;-74
2022/11/05 08:21:37;;;;;;;14.75;4.35;;;;;;;8.53;97.68;101195.94;4948941;28;20022;-74
2022/11/05 08:24:03;;;;;;;28.05;4.93;;;;;;;8.56;97.16;101195.69;4948343;28;20024;-74
2022/11/05 08:26:28;;;;;;;21.58;6.68;;;;;;;8.48;97.58;101198.22;4949917;28;20038;-73
2022/11/05 08:28:54;;;;;;;18.02;3.90;;;;;;;8.78;96.50;101217.06;4966197;28;20039;-74
2022/11/05 08:31:19;;;;;;;20.70;4.00;;;;;;;8.82;95.92;101202.31;4949189;28;20100;-74
2022/11/05 08:33:44;;;;;;;18.50;4.30;;;;;;;8.78;95.69;101206.25;4949007;28;20026;-74
2022/11/05 08:36:10;;;;;;;24.23;4.03;;;;;;;8.77;96.35;101218.06;4947641;28;20173;-73
2022/11/05 08:38:35;;;;;;;20.02;3.75;;;;;;;8.83;95.16;101214.81;4949394;28;20029;-74
2022/11/05 08:41:01;;;;;;;18.30;3.50;;;;;;;8.70;95.94;101209.66;4947648;28;20034;-75
2022/11/05 08:43:26;;;;;;;22.15;4.50;;;;;;;8.86;95.26;101209.13;4965679;28;20096;-73
2022/11/05 08:45:51;;;;;;;22.00;3.88;;;;;;;8.78;95.33;101217.06;4949544;28;20038;-74
2022/11/05 08:48:18;;;;;;;14.10;3.53;;;;;;;8.79;94.98;101218.75;4947820;28;20038;-73
2022/11/05 08:50:45;;;;;;;14.88;3.85;;;;;;;9.06;94.93;101211.84;4966358;28;20058;-74
2022/11/05 08:53:11;;;;;;;18.98;3.78;;;;;;;8.80;95.08;101220.50;4948112;28;20023;-74
2022/11/05 08:55:37;;;;;;;20.75;3.95;;;;;;;8.88;94.94;101223.34;4964997;28;20098;-74
2022/11/05 08:58:05;;;;;;;11.70;3.47;;;;;;;9.04;95.11;101221.94;4948692;28;20055;-74
2022/11/05 09:00:33;;;;;;;17.05;3.38;;;;;;;8.96;94.81;101231.59;4964380;28;20019;-74
2022/11/05 09:02:59;;;;;;;13.32;3.65;;;;;;;9.02;95.52;101226.66;4964545;28;20046;-75
2022/11/05 09:05:25;;;;;;;20.70;3.78;;;;;;;9.24;94.47;101223.66;4965669;28;20027;-74
2022/11/05 09:07:51;;;;;;;35.35;5.10;;;;;;;9.15;93.91;101224.53;4947650;28;20101;-74
2022/11/05 09:10:16;;;;;;;19.45;3.63;;;;;;;9.02;95.14;101219.38;4965305;28;20031;-74
2022/11/05 09:12:42;;;;;;;12.70;3.30;;;;;;;9.47;94.11;101218.84;4966163;28;20090;-74
2022/11/05 09:15:08;;;;;;;10.32;3.45;;;;;;;9.14;94.57;101217.44;4949071;28;20034;-74
2022/11/05 09:17:33;;;;;;;19.75;3.28;;;;;;;9.42;93.55;101226.53;4969268;28;20038;-73
2022/11/05 09:20:00;;;;;;;14.10;3.15;;;;;;;9.57;92.73;101225.09;4951142;28;20051;-74
2022/11/05 09:22:26;;;;;;;13.48;3.22;;;;;;;9.36;92.66;101224.41;4968105;28;20049;-74
2022/11/05 09:24:51;;;;;;;11.50;3.17;;;;;;;9.62;91.49;101233.63;4967057;28;20030;-74
2022/11/05 09:27:16;;;;;;;15.75;3.60;;;;;;;9.58;91.40;101236.75;4950560;28;20038;-74
2022/11/05 09:29:42;;;;;;;12.63;2.83;;;;;;;9.52;92.36;101236.38;4950864;28;20530;-74
2022/11/05 09:32:08;;;;;;;16.10;3.05;;;;;;;9.69;91.64;101233.91;4968557;28;20058;-74
2022/11/05 09:34:33;;;;;;;24.00;3.70;;;;;;;9.88;90.95;101228.50;4950297;28;20110;-74
2022/11/05 09:36:59;;;;;;;12.20;2.58;;;;;;;9.72;91.46;101228.25;4951608;28;20034;-74
2022/11/05 09:39:24;;;;;;;18.73;3.78;;;;;;;9.96;90.07;101231.31;4950688;28;20026;-74
2022/11/05 09:41:54;;;;;;;19.00;3.65;;;;;;;9.96;89.83;101242.13;4949637;28;20529;-74
2022/11/05 09:44:27;;;;;;;22.02;3.10;;;;;;;9.76;90.70;101232.34;4950962;28;20124;-74
2022/11/05 09:47:03;;;;;;;20.80;3.15;;;;;;;9.80;89.68;101241.88;4950574;28;20062;-75
2022/11/05 09:49:34;;;;;;;17.70;3.40;;;;;;;9.70;90.47;101258.09;4968415;28;20046;-75
2022/11/05 09:52:01;;;;;;;12.90;3.00;;;;;;;9.91;90.35;101244.44;4950337;28;20056;-75
2022/11/05 09:54:30;;;;;;;23.85;3.60;;;;;;;9.69;90.35;101277.19;4967608;28;20483;-75
2022/11/05 09:56:56;;;;;;;9.68;3.08;;;;;;;9.99;90.22;101241.84;4950966;28;20051;-74
2022/11/05 09:59:28;;;;;;;20.90;3.40;;;;;;;10.17;88.97;101254.63;4968219;28;20097;-76
2022/11/05 10:02:00;;;;;;;;;;;;;;;10.02;89.25;101263.19;4952932;28;20023;-75
2022/11/05 10:04:29;;;;;;;11.93;2.97;;;;;;;10.03;89.84;101259.47;4971236;28;19916;-74
2022/11/05 10:06:59;;;;;;;16.77;3.53;;;;;;;10.07;88.79;101271.72;4971398;28;20027;-75
2022/11/05 10:09:38;;;;;;;20.00;4.65;;;;;;;10.06;89.13;101258.34;4949839;28;20101;-74
2022/11/05 10:12:11;;;;;;;10.52;3.10;;;;;;;10.19;88.82;101285.09;4949695;28;20061;-74
2022/11/05 10:14:49;;;;;;;25.10;4.00;;;;;;;10.26;88.29;101267.31;4949162;28;20042;-74
2022/11/05 10:17:21;;;;;;;15.48;3.42;;;;;;;10.38;87.87;101268.00;4949266;28;20085;-74
2022/11/05 10:19:53;;;;;;;;;;;;;;;10.39;87.63;101275.97;4949636;28;20034;-74
2022/11/05 10:22:19;;;;;;;;;;;;;;;10.66;86.48;101261.63;4966090;28;19913;-74
2022/11/05 10:24:46;;;;;;;11.05;3.20;;;;;;;10.34;87.49;101256.59;4991100;23;20040;-71
2022/11/05 10:27:35;;;;;;;13.32;3.10;;;;;;;10.93;87.04;101263.47;4992348;28;20454;-71
2022/11/05 10:30:00;;;;;;;11.68;3.13;;;;;;;10.86;85.38;101265.09;5008997;28;20030;-70
2022/11/05 10:32:33;;;;;;;15.23;2.83;;;;;;;11.20;84.12;101265.31;5010796;28;20497;-69
2022/11/05 10:35:01;;;;;;;15.95;3.00;;;;;;;11.25;83.99;101275.69;5009115;28;20041;-69
2022/11/05 10:37:28;;;;;;;13.50;2.92;;;;;;;11.31;83.52;101275.94;4993006;28;20029;-71
2022/11/05 10:39:54;;;;;;;13.10;3.13;;;;;;;11.88;82.71;101264.81;5010380;28;20022;-71
2022/11/05 10:42:45;;;;;;;10.25;2.83;;;;;;;11.39;81.99;101272.44;4993075;28;20052;-71
2022/11/05 10:45:48;;;;;;;16.30;3.90;;;;;;;11.29;83.60;101274.41;4992417;28;20034;-69
2022/11/05 10:48:44;;;;;;;9.35;2.70;;;;;;;11.58;81.97;101285.88;4992574;28;20041;-71
2022/11/05 10:51:10;;;;;;;22.75;3.05;;;;;;;11.36;82.13;101270.06;4992752;28;20108;-72
2022/11/05 10:53:40;;;;;;;15.27;2.92;;;;;;;11.47;81.97;101264.38;4992750;28;20049;-71
2022/11/05 10:56:34;;;;;;;13.43;3.35;;;;;;;11.43;82.52;101275.72;5008632;28;20479;-70
2022/11/05 10:59:02;;;;;;;14.30;3.05;;;;;;;11.50;81.86;101266.81;4992449;28;20041;-71
2022/11/05 11:01:28;;;;;;;10.60;2.92;;;;;;;11.44;82.70;101272.84;5008823;28;20037;-71
2022/11/05 11:04:19;;;;;;;14.07;3.10;;;;;;;11.68;81.84;101270.38;4992276;28;20021;-68
2022/11/05 11:06:56;;;;;;;18.98;3.72;;;;;;;11.77;81.46;101273.16;4992904;28;20029;-70
2022/11/05 11:09:31;;;;;;;15.05;3.92;;;;;;;11.71;81.69;101268.34;5009616;28;20049;-72
2022/11/05 11:12:05;;;;;;;21.10;2.88;;;;;;;11.64;81.72;101274.41;5010646;28;20075;-71
2022/11/05 11:14:32;;;;;;;15.55;3.13;;;;;;;11.97;81.16;101268.44;5026031;28;20068;-69
2022/11/05 11:17:25;;;;;;;25.52;3.75;;;;;;;11.65;82.01;101270.66;4993753;28;20029;-72
2022/11/05 11:19:52;;;;;;;11.60;2.88;;;;;;;12.00;80.90;101277.13;5009454;28;20348;-69
2022/11/05 11:22:20;;;;;;;10.07;2.53;;;;;;;12.17;80.36;101269.94;4993180;28;20134;-70
2022/11/05 11:24:52;;;;;;;11.82;2.65;;;;;;;12.16;79.55;101269.09;5009305;28;20045;-70
2022/11/05 11:27:36;;;;;;;15.13;2.95;;;;;;;12.20;79.49;101275.91;4993049;28;20022;-71
2022/11/05 11:30:17;;;;;;;15.98;2.78;;;;;;;11.95;79.63;101276.75;4994134;28;20018;-71
2022/11/05 11:32:44;;;;;;;10.50;3.33;;;;;;;11.71;80.57;101273.78;5011035;28;20049;-71
2022/11/05 11:35:24;;;;;;;6.30;2.20;;;;;;;11.66;81.46;101280.50;5010555;28;20025;-71
2022/11/05 11:37:55;;;;;;;13.52;2.58;;;;;;;11.68;81.01;101275.81;4993079;28;20033;-72
2022/11/05 11:40:22;;;;;;;;;;;;;;;11.59;81.09;101271.28;4993533;28;20035;-71
2022/11/05 11:42:54;;;;;;;9.88;3.17;;;;;;;12.02;79.94;101266.94;5026090;28;20312;-72
2022/11/05 11:45:37;;;;;;;15.65;2.97;;;;;;;12.20;79.17;101259.63;5009120;28;20030;-71
2022/11/05 11:48:12;;;;;;;10.90;2.40;;;;;;;12.44;78.65;101263.50;5010668;28;20121;-70
2022/11/05 11:50:41;;;;;;;10.45;2.28;;;;;;;12.26;78.66;101263.56;5009348;28;20124;-70
2022/11/05 11:53:36;;;;;;;10.57;2.35;;;;;;;13.04;77.38;101263.47;5011176;28;20083;-71
2022/11/05 11:56:18;;;;;;;13.02;2.78;;;;;;;12.35;78.62;101267.19;5000900;28;20042;-71
2022/11/05 11:58:53;;;;;;;;;;;;;;;12.28;78.34;101271.56;5025950;28;20101;-71
2022/11/05 12:01:46;;;;;;;21.23;2.90;;;;;;;12.18;78.58;101267.06;5010337;28;19913;-71
2022/11/05 12:04:41;;;;;;;12.80;2.95;;;;;;;12.11;78.79;101260.56;5025643;28;20416;-72
2022/11/05 12:07:18;;;;;;;4.60;2.67;;;;;;;12.11;78.58;101276.84;5010200;28;20026;-72
2022/11/05 12:10:03;;;;;;;9.55;2.50;;;;;;;12.04;79.74;101270.34;5008953;28;20053;-72
2022/11/05 12:12:43;;;;;;;9.73;2.58;;;;;;;11.75;80.76;101265.19;5008328;28;20033;-71
2022/11/05 12:15:34;;;;;;;9.18;2.47;;;;;;;12.04;79.71;101281.22;5008701;28;20026;-70
2022/11/05 12:18:25;;;;;;;13.57;2.90;;;;;;;11.95;80.44;101271.31;4992037;28;20116;-69
2022/11/05 12:21:08;;;;;;;10.73;2.70;;;;;;;11.74;81.05;101274.34;5008685;28;20041;-70
2022/11/05 12:23:46;;;;;;;13.13;3.58;;;;;;;11.97;80.13;101266.56;5024593;28;20030;-70
2022/11/05 12:26:25;;;;;;;17.88;3.00;;;;;;;12.25;79.20;101274.56;5024620;28;20034;-70
2022/11/05 12:28:54;;;;;;;9.93;2.72;;;;;;;12.43;78.46;101269.94;4991850;28;20026;-70
2022/11/05 12:31:45;;;;;;;7.95;2.63;;;;;;;12.26;78.55;101268.13;5009660;28;20079;-70
2022/11/05 12:34:30;;;;;;;16.80;5.00;;;;;;;12.30;78.87;101261.38;4988831;28;20041;-70
2022/11/05 12:37:07;;;;;;;12.15;2.03;;;;;;;12.52;77.98;101258.13;4992564;28;20038;-70
2022/11/05 12:39:42;;;;;;;10.68;3.15;;;;;;;13.17;76.03;101265.66;4992804;28;20041;-70
2022/11/05 12:42:39;;;;;;;12.35;2.47;;;;;;;13.01;76.31;101274.63;4992836;28;20037;-70
2022/11/05 12:45:26;;;;;;;12.55;2.63;;;;;;;13.09;76.81;101271.94;4993119;28;20080;-71
2022/11/05 12:48:09;;;;;;;15.43;2.75;;;;;;;12.65;78.21;101269.41;5010734;28;20045;-71